createdAt,value
2023-03-05T00:00:43.048Z,22.90
2023-03-05T00:03:10.438Z,22.50
2023-03-05T00:05:37.756Z,22.70
2023-03-05T00:08:05.065Z,23.20
2023-03-05T00:10:35.043Z,22.50
2023-03-05T00:13:06.363Z,22.50
2023-03-05T00:15:33.519Z,22.60
2023-03-05T00:18:00.771Z,22.90
2023-03-05T00:20:27.971Z,21.90
2023-03-05T00:22:55.151Z,22.60
2023-03-05T00:25:22.434Z,22.80
2023-03-05T00:27:49.498Z,22.30
2023-03-05T00:30:16.640Z,22.60
2023-03-05T00:32:43.865Z,22.90
2023-03-05T00:35:11.072Z,22.10
2023-03-05T00:37:38.434Z,22.20
2023-03-05T00:40:06.479Z,22.20
2023-03-05T00:42:38.639Z,22.70
2023-03-05T00:45:07.188Z,22.80
2023-03-05T00:47:34.381Z,22.00
2023-03-05T00:50:01.681Z,22.80
2023-03-05T00:52:29.024Z,21.60
2023-03-05T00:54:56.250Z,21.90
2023-03-05T00:57:23.309Z,22.30
2023-03-05T00:59:50.691Z,22.30
2023-03-05T01:02:18.014Z,21.90
2023-03-05T01:04:47.347Z,22.00
2023-03-05T01:07:15.657Z,21.60
2023-03-05T01:09:42.785Z,21.50
2023-03-05T01:12:09.881Z,21.80
2023-03-05T01:14:37.217Z,21.00
2023-03-05T01:17:05.035Z,21.40
2023-03-05T01:19:32.280Z,20.70
2023-03-05T01:21:59.733Z,20.60
2023-03-05T01:24:27.759Z,19.80
2023-03-05T01:26:54.947Z,20.40
2023-03-05T01:29:22.207Z,20.50
2023-03-05T01:31:49.476Z,20.10
2023-03-05T01:34:18.107Z,20.00
2023-03-05T01:36:45.276Z,20.30
2023-03-05T01:39:13.138Z,19.90
2023-03-05T01:41:40.468Z,19.10
2023-03-05T01:44:07.734Z,20.00
2023-03-05T01:46:36.865Z,20.00
2023-03-05T01:49:16.581Z,19.20
2023-03-05T01:51:58.605Z,19.80
2023-03-05T01:54:29.652Z,19.60
2023-03-05T01:56:57.195Z,20.10
2023-03-05T01:59:24.603Z,20.30
2023-03-05T02:01:53.789Z,20.00
2023-03-05T02:04:20.818Z,20.80
2023-03-05T02:06:49.978Z,20.40
2023-03-05T02:09:17.302Z,19.80
2023-03-05T02:11:44.382Z,19.50
2023-03-05T02:14:11.564Z,18.50
2023-03-05T02:16:38.886Z,18.50
2023-03-05T02:19:07.674Z,17.60
2023-03-05T02:21:43.214Z,18.00
2023-03-05T02:24:12.994Z,19.20
2023-03-05T02:26:40.577Z,18.80
2023-03-05T02:29:08.896Z,17.90
2023-03-05T02:31:36.785Z,18.70
2023-03-05T02:34:03.876Z,18.50
2023-03-05T02:36:31.125Z,18.50
2023-03-05T02:38:59.246Z,18.20
2023-03-05T02:41:26.909Z,18.60
2023-03-05T02:43:56.572Z,18.80
2023-03-05T02:46:23.693Z,18.70
2023-03-05T02:48:50.780Z,18.90
2023-03-05T02:51:18.111Z,18.80
2023-03-05T02:53:46.426Z,18.30
2023-03-05T02:56:14.360Z,19.20
2023-03-05T02:58:42.191Z,21.10
2023-03-05T03:01:10.403Z,21.70
2023-03-05T03:03:37.643Z,20.00
2023-03-05T03:06:05.228Z,20.60
2023-03-05T03:08:32.457Z,20.40
2023-03-05T03:11:09.738Z,20.40
2023-03-05T03:13:37.170Z,20.70
2023-03-05T03:16:11.961Z,20.60
2023-03-05T03:18:39.069Z,20.10
2023-03-05T03:21:06.638Z,21.40
2023-03-05T03:23:33.987Z,20.20
2023-03-05T03:26:01.079Z,21.10
2023-03-05T03:28:28.230Z,20.50
2023-03-05T03:30:55.827Z,21.10
2023-03-05T03:33:22.950Z,20.40
2023-03-05T03:35:50.136Z,20.90
2023-03-05T03:38:17.647Z,21.50
2023-03-05T03:40:44.728Z,22.50
2023-03-05T03:43:11.844Z,21.10
2023-03-05T03:45:43.148Z,21.50
2023-03-05T03:48:10.761Z,22.20
2023-03-05T03:50:43.986Z,21.70
2023-03-05T03:53:14.444Z,22.20
2023-03-05T03:55:42.720Z,22.90
2023-03-05T03:58:10.006Z,23.40
2023-03-05T04:00:37.329Z,23.50
2023-03-05T04:03:04.337Z,24.00
2023-03-05T04:05:31.749Z,24.10
2023-03-05T04:08:00.163Z,23.90
2023-03-05T04:10:27.492Z,24.90
2023-03-05T04:12:54.748Z,24.60
2023-03-05T04:15:21.903Z,24.70
2023-03-05T04:17:49.075Z,25.00
2023-03-05T04:20:16.458Z,25.10
2023-03-05T04:22:43.610Z,25.00
2023-03-05T04:25:10.744Z,25.90
2023-03-05T04:27:40.339Z,25.00
2023-03-05T04:30:09.086Z,24.70
2023-03-05T04:32:36.382Z,25.30
2023-03-05T04:35:03.689Z,24.90
2023-03-05T04:37:30.844Z,25.10
2023-03-05T04:39:57.947Z,24.80
2023-03-05T04:42:25.090Z,24.50
2023-03-05T04:44:52.438Z,24.50
2023-03-05T04:47:19.535Z,24.70
2023-03-05T04:49:46.798Z,24.50
2023-03-05T04:52:13.995Z,25.40
2023-03-05T04:54:41.044Z,25.20
2023-03-05T04:57:10.917Z,25.90
2023-03-05T04:59:41.392Z,25.00
2023-03-05T05:02:08.432Z,24.70
2023-03-05T05:04:36.394Z,24.50
2023-03-05T05:07:04.878Z,25.90
2023-03-05T05:09:31.936Z,25.30
2023-03-05T05:11:59.068Z,25.00
2023-03-05T05:14:26.285Z,25.20
2023-03-05T05:16:56.203Z,25.10
2023-03-05T05:19:23.400Z,25.40
2023-03-05T05:21:50.560Z,25.60
2023-03-05T05:24:17.575Z,25.30
2023-03-05T05:26:44.707Z,25.30
2023-03-05T05:29:11.889Z,25.20
2023-03-05T05:31:42.177Z,24.90
2023-03-05T05:34:09.437Z,25.30
2023-03-05T05:36:36.933Z,25.50
2023-03-05T05:39:04.393Z,26.20
2023-03-05T05:41:31.591Z,26.60
2023-03-05T05:44:01.760Z,26.20
2023-03-05T05:46:29.131Z,25.80
2023-03-05T05:48:56.310Z,25.20
2023-03-05T05:51:24.199Z,25.30
2023-03-05T05:53:51.294Z,25.60
2023-03-05T05:56:18.483Z,25.70
2023-03-05T05:58:47.505Z,25.10
2023-03-05T06:01:23.524Z,25.90
2023-03-05T06:03:50.839Z,25.60
2023-03-05T06:06:19.212Z,25.10
2023-03-05T06:08:46.471Z,25.80
2023-03-05T06:11:13.622Z,25.90
2023-03-05T06:13:40.823Z,25.40
2023-03-05T06:16:11.031Z,25.20
2023-03-05T06:18:38.246Z,26.00
2023-03-05T06:21:12.508Z,26.40
2023-03-05T06:23:39.836Z,26.80
2023-03-05T06:26:07.904Z,26.10
2023-03-05T06:28:35.162Z,26.70
2023-03-05T06:31:07.449Z,26.60
2023-03-05T06:33:34.837Z,26.40
2023-03-05T06:36:09.710Z,26.50
2023-03-05T06:38:37.253Z,26.70
2023-03-05T06:41:09.419Z,26.20
2023-03-05T06:43:38.735Z,26.00
2023-03-05T06:46:07.715Z,26.60
2023-03-05T06:48:34.972Z,26.00
2023-03-05T06:51:02.179Z,26.40
2023-03-05T06:53:29.275Z,26.20
2023-03-05T06:55:56.478Z,26.00
2023-03-05T06:58:23.733Z,25.80
2023-03-05T07:00:50.859Z,26.10
2023-03-05T07:03:18.020Z,26.60
2023-03-05T07:05:45.347Z,25.40
2023-03-05T07:08:12.557Z,25.90
2023-03-05T07:10:40.601Z,25.50
2023-03-05T07:13:08.409Z,25.80
2023-03-05T07:15:37.737Z,25.60
2023-03-05T07:18:04.920Z,24.10
2023-03-05T07:20:34.276Z,24.90
2023-03-05T07:23:01.521Z,24.30
2023-03-05T07:25:28.633Z,23.60
2023-03-05T07:27:55.818Z,24.00
2023-03-05T07:30:22.979Z,22.90
2023-03-05T07:32:50.213Z,23.20
2023-03-05T07:35:17.372Z,22.50
2023-03-05T07:37:44.527Z,22.10
2023-03-05T07:40:12.081Z,22.00
2023-03-05T07:42:42.257Z,21.30
2023-03-05T07:45:18.852Z,20.60
2023-03-05T07:47:45.984Z,21.00
2023-03-05T07:50:13.113Z,20.00
2023-03-05T07:52:40.306Z,19.20
2023-03-05T07:55:07.893Z,19.70
2023-03-05T07:57:35.841Z,19.60
2023-03-05T08:00:03.036Z,19.70
2023-03-05T08:02:38.787Z,18.80
2023-03-05T08:05:08.793Z,16.90
2023-03-05T08:07:35.800Z,16.40
2023-03-05T08:10:03.768Z,15.60
2023-03-05T08:12:31.037Z,15.40
2023-03-05T08:14:58.104Z,16.20
2023-03-05T08:17:25.208Z,13.40
2023-03-05T08:19:53.910Z,14.80
2023-03-05T08:22:20.934Z,15.10
2023-03-05T08:24:48.352Z,15.30
2023-03-05T08:27:15.544Z,14.80
2023-03-05T08:29:42.604Z,13.20
2023-03-05T08:32:09.713Z,12.50
2023-03-05T08:34:39.429Z,13.20
2023-03-05T08:37:10.085Z,11.40
2023-03-05T08:39:37.527Z,10.90
2023-03-05T08:42:10.218Z,12.80
2023-03-05T08:44:40.142Z,11.40
2023-03-05T08:47:08.208Z,9.70
2023-03-05T08:49:35.715Z,7.60
2023-03-05T08:52:04.062Z,9.50
2023-03-05T08:54:31.171Z,8.20
2023-03-05T08:57:01.557Z,5.80
2023-03-05T08:59:28.968Z,7.50
2023-03-05T09:01:56.420Z,6.60
2023-03-05T09:04:23.548Z,4.80
2023-03-05T09:06:50.984Z,5.10
2023-03-05T09:09:20.814Z,6.20
2023-03-05T09:11:48.053Z,4.50
2023-03-05T09:14:15.520Z,6.30
2023-03-05T09:16:42.718Z,4.40
2023-03-05T09:19:12.781Z,4.00
2023-03-05T09:21:40.382Z,3.80
2023-03-05T09:24:11.937Z,1.00
2023-03-05T09:26:39.252Z,2.00
2023-03-05T09:29:09.584Z,3.20
2023-03-05T09:31:37.184Z,2.50
2023-03-05T09:34:04.767Z,3.00
2023-03-05T09:36:32.329Z,1.80
2023-03-05T09:38:59.410Z,1.30
2023-03-05T09:41:47.968Z,1.00
2023-03-05T09:44:52.556Z,1.00
2023-03-05T09:47:46.160Z,1.20
2023-03-05T09:50:19.170Z,2.00
2023-03-05T09:52:50.558Z,1.00
2023-03-05T09:55:40.451Z,1.00
2023-03-05T09:58:37.666Z,1.00
2023-03-05T10:01:09.788Z,1.00
2023-03-05T10:03:49.117Z,1.00
2023-03-05T10:06:56.036Z,1.00
2023-03-05T10:09:45.460Z,1.00
2023-03-05T10:12:43.815Z,1.00
2023-03-05T10:15:15.756Z,1.00
2023-03-05T10:18:01.208Z,1.00
2023-03-05T10:20:49.643Z,1.00
2023-03-05T10:23:24.873Z,1.00
2023-03-05T10:26:12.246Z,1.00
2023-03-05T10:28:42.349Z,1.00
2023-03-05T10:31:25.092Z,1.00
2023-03-05T10:34:21.208Z,1.00
2023-03-05T10:37:09.805Z,1.00
2023-03-05T10:39:39.945Z,1.00
2023-03-05T10:42:51.425Z,1.00
2023-03-05T10:45:22.968Z,1.00
2023-03-05T10:48:17.114Z,1.00
2023-03-05T10:50:49.545Z,1.00
2023-03-05T10:53:27.932Z,1.00
2023-03-05T10:55:56.699Z,1.00
2023-03-05T10:58:24.866Z,1.00
2023-03-05T11:01:01.671Z,1.00
2023-03-05T11:04:25.547Z,1.00
2023-03-05T11:06:53.075Z,1.00
2023-03-05T11:09:29.827Z,1.00
2023-03-05T11:12:19.670Z,1.00
2023-03-05T11:15:03.160Z,1.00
2023-03-05T11:17:34.867Z,1.00
2023-03-05T11:20:27.423Z,1.00
2023-03-05T11:23:15.790Z,1.00
2023-03-05T11:26:22.172Z,1.00
2023-03-05T11:28:52.450Z,1.00
2023-03-05T11:31:19.477Z,1.00
2023-03-05T11:34:23.628Z,1.00
2023-03-05T11:36:53.552Z,1.00
2023-03-05T11:39:24.878Z,1.00
2023-03-05T11:41:59.164Z,1.00
2023-03-05T11:44:34.416Z,1.00
2023-03-05T11:47:24.395Z,1.00
2023-03-05T11:49:55.002Z,1.00
2023-03-05T11:52:27.468Z,1.00
2023-03-05T11:55:17.936Z,1.00
2023-03-05T11:58:26.736Z,1.00
2023-03-05T12:04:32.722Z,1.00
2023-03-05T12:07:49.321Z,1.00
2023-03-05T12:11:06.451Z,1.00
2023-03-05T12:14:19.587Z,1.00
2023-03-05T12:17:17.210Z,1.00
2023-03-05T12:20:53.409Z,1.00
2023-03-05T12:23:21.632Z,1.00
2023-03-05T12:26:06.932Z,1.00
2023-03-05T12:32:57.723Z,1.00
2023-03-05T12:35:41.202Z,1.00
2023-03-05T12:38:29.544Z,1.00
2023-03-05T12:41:27.472Z,1.00
2023-03-05T12:44:18.379Z,1.00
2023-03-05T12:46:49.349Z,1.00
2023-03-05T12:49:20.395Z,1.00
2023-03-05T12:51:48.260Z,1.00
2023-03-05T12:54:42.405Z,1.00
2023-03-05T12:57:30.192Z,1.00
2023-03-05T13:00:13.201Z,1.00
2023-03-05T13:03:02.816Z,1.00
2023-03-05T13:05:34.110Z,1.00
2023-03-05T13:08:48.835Z,1.00
2023-03-05T13:11:51.501Z,1.00
2023-03-05T13:14:49.078Z,1.00
2023-03-05T13:17:31.308Z,1.00
2023-03-05T13:20:07.495Z,1.00
2023-03-05T13:22:47.300Z,1.00
2023-03-05T13:25:21.079Z,1.00
2023-03-05T13:28:00.923Z,1.00
2023-03-05T13:30:33.708Z,1.00
2023-03-05T13:33:07.830Z,1.00
2023-03-05T13:35:37.848Z,1.00
2023-03-05T13:38:05.074Z,1.00
2023-03-05T13:40:33.016Z,1.00
2023-03-05T13:43:14.634Z,1.00
2023-03-05T13:45:44.872Z,1.00
2023-03-05T13:48:19.163Z,1.00
2023-03-05T13:50:46.732Z,1.00
2023-03-05T13:53:28.150Z,1.00
2023-03-05T13:55:58.543Z,1.00
2023-03-05T13:58:54.778Z,1.00
2023-03-05T14:01:45.678Z,1.00
2023-03-05T14:04:12.849Z,1.00
2023-03-05T14:07:09.429Z,1.00
2023-03-05T14:09:42.290Z,1.00
2023-03-05T14:12:28.378Z,1.00
2023-03-05T14:14:56.318Z,1.00
2023-03-05T14:17:36.894Z,1.00
2023-03-05T14:20:23.242Z,1.00
2023-03-05T14:22:53.301Z,1.00
2023-03-05T14:25:39.732Z,1.00
2023-03-05T14:28:19.593Z,1.00
2023-03-05T14:30:52.246Z,1.00
2023-03-05T14:33:32.386Z,1.00
2023-03-05T14:36:00.537Z,1.00
2023-03-05T14:38:29.954Z,1.00
2023-03-05T14:40:57.172Z,1.00
2023-03-05T14:43:24.513Z,1.00
2023-03-05T14:45:52.060Z,1.00
2023-03-05T14:48:19.643Z,1.00
2023-03-05T14:50:52.505Z,1.00
2023-03-05T14:53:28.554Z,1.00
2023-03-05T14:55:57.227Z,1.00
2023-03-05T14:58:26.546Z,1.00
2023-03-05T15:00:54.449Z,1.00
2023-03-05T15:03:22.436Z,1.00
2023-03-05T15:05:51.670Z,1.00
2023-03-05T15:08:27.384Z,1.00
2023-03-05T15:10:54.844Z,1.00
2023-03-05T15:13:22.209Z,1.00
2023-03-05T15:15:49.869Z,1.00
2023-03-05T15:18:18.759Z,1.00
2023-03-05T15:20:46.334Z,1.00
2023-03-05T15:23:13.817Z,1.00
2023-03-05T15:25:41.185Z,1.00
2023-03-05T15:28:08.504Z,1.00
2023-03-05T15:30:44.752Z,1.00
2023-03-05T15:33:13.902Z,1.00
2023-03-05T15:35:41.386Z,1.00
2023-03-05T15:38:08.952Z,1.00
2023-03-05T15:40:36.890Z,1.00
2023-03-05T15:43:04.319Z,1.00
2023-03-05T15:45:45.632Z,1.00
2023-03-05T15:48:27.181Z,1.00
2023-03-05T15:50:56.663Z,1.00
2023-03-05T15:53:24.015Z,1.00
2023-03-05T15:55:51.454Z,1.00
2023-03-05T15:58:18.704Z,1.00
2023-03-05T16:00:47.703Z,1.00
2023-03-05T16:03:15.752Z,1.00
2023-03-05T16:05:44.985Z,1.00
2023-03-05T16:08:12.637Z,1.00
2023-03-05T16:10:41.099Z,1.00
2023-03-05T16:13:11.552Z,1.00
2023-03-05T16:15:39.187Z,1.00
2023-03-05T16:18:12.466Z,1.00
2023-03-05T16:20:39.853Z,1.00
2023-03-05T16:23:10.555Z,1.00
2023-03-05T16:25:38.468Z,1.00
2023-03-05T16:28:06.757Z,1.00
2023-03-05T16:30:36.913Z,1.00
2023-03-05T16:33:05.763Z,1.00
2023-03-05T16:35:39.241Z,1.00
2023-03-05T16:38:13.348Z,1.00
2023-03-05T16:41:08.927Z,1.00
2023-03-05T16:43:28.931Z,1.00
2023-03-05T16:46:01.026Z,1.00
2023-03-05T16:48:30.385Z,1.00
2023-03-05T16:51:00.156Z,1.00
2023-03-05T16:53:28.305Z,1.00
2023-03-05T16:55:57.791Z,1.00
2023-03-05T16:58:25.699Z,1.00
2023-03-05T17:00:54.561Z,1.00
2023-03-05T17:03:24.785Z,1.00
2023-03-05T17:05:52.160Z,1.00
2023-03-05T17:08:19.410Z,1.00
2023-03-05T17:10:47.911Z,1.00
2023-03-05T17:13:15.120Z,1.00
2023-03-05T17:18:10.866Z,1.00
2023-03-05T17:20:38.283Z,1.00
2023-03-05T17:23:06.283Z,1.00
2023-03-05T17:25:33.748Z,1.00
2023-03-05T17:28:01.299Z,1.00
2023-03-05T17:30:31.792Z,1.00
2023-03-05T17:33:00.014Z,1.30
2023-03-05T17:35:27.706Z,3.10
2023-03-05T17:37:55.606Z,3.00
2023-03-05T17:40:23.609Z,4.60
2023-03-05T17:42:51.375Z,5.20
2023-03-05T17:45:18.782Z,6.50
2023-03-05T17:47:46.157Z,7.10
2023-03-05T17:50:15.062Z,8.30
2023-03-05T17:52:42.468Z,8.50
2023-03-05T17:55:10.820Z,9.00
2023-03-05T17:57:41.682Z,9.60
2023-03-05T18:00:22.297Z,9.60
2023-03-05T18:02:50.542Z,9.80
2023-03-05T18:05:18.946Z,10.20
2023-03-05T18:07:46.244Z,10.30
2023-03-05T18:10:13.841Z,10.80
2023-03-05T18:12:41.274Z,10.70
2023-03-05T18:15:10.075Z,10.70
2023-03-05T18:17:37.386Z,11.10
2023-03-05T18:20:07.727Z,11.40
2023-03-05T18:22:35.114Z,12.10
2023-03-05T18:25:02.667Z,11.80
2023-03-05T18:27:31.197Z,13.20
2023-03-05T18:29:58.365Z,13.00
2023-03-05T18:32:25.825Z,12.50
2023-03-05T18:34:53.025Z,12.80
2023-03-05T18:37:20.120Z,13.00
2023-03-05T18:39:47.228Z,13.50
2023-03-05T18:42:14.596Z,14.10
2023-03-05T18:44:42.341Z,13.60
2023-03-05T18:47:15.881Z,12.80
2023-03-05T18:49:43.277Z,12.90
2023-03-05T18:52:11.082Z,14.00
2023-03-05T18:54:38.244Z,14.00
2023-03-05T18:57:05.438Z,12.80
2023-03-05T18:59:32.710Z,13.20
2023-03-05T19:01:59.942Z,13.70
2023-03-05T19:04:27.758Z,13.20
2023-03-05T19:06:54.933Z,13.80
2023-03-05T19:09:39.036Z,14.00
2023-03-05T19:12:06.534Z,14.50
2023-03-05T19:14:33.810Z,14.30
2023-03-05T19:17:01.103Z,14.90
2023-03-05T19:19:30.486Z,14.60
2023-03-05T19:21:59.755Z,14.40
2023-03-05T19:24:34.173Z,14.40
2023-03-05T19:27:06.884Z,14.30
2023-03-05T19:29:34.671Z,14.50
2023-03-05T19:32:01.871Z,14.30
2023-03-05T19:34:29.051Z,14.30
2023-03-05T19:36:56.365Z,14.20
2023-03-05T19:39:23.780Z,14.50
2023-03-05T19:41:51.023Z,13.80
2023-03-05T19:44:19.548Z,15.60
2023-03-05T19:46:48.643Z,16.10
2023-03-05T19:49:16.560Z,14.60
2023-03-05T19:51:44.133Z,15.10
2023-03-05T19:54:18.074Z,14.70
2023-03-05T19:56:45.908Z,14.60
2023-03-05T19:59:16.426Z,14.80
2023-03-05T20:01:43.815Z,15.00
2023-03-05T20:04:11.328Z,15.60
2023-03-05T20:06:38.453Z,15.20
2023-03-05T20:09:07.910Z,16.60
2023-03-05T20:11:35.708Z,16.20
2023-03-05T20:14:03.005Z,16.80
2023-03-05T20:16:32.178Z,16.10
2023-03-05T20:18:59.657Z,15.70
2023-03-05T20:21:31.170Z,15.70
2023-03-05T20:24:00.118Z,16.00
2023-03-05T20:26:27.507Z,16.10
2023-03-05T20:28:55.022Z,16.70
2023-03-05T20:31:23.628Z,16.90
2023-03-05T20:33:51.018Z,17.90
2023-03-05T20:36:18.378Z,17.70
2023-03-05T20:38:46.426Z,18.30
2023-03-05T20:41:18.402Z,18.60
2023-03-05T20:43:47.780Z,18.90
2023-03-05T20:46:28.171Z,20.00
2023-03-05T20:49:21.475Z,20.90
2023-03-05T20:51:50.310Z,21.10
2023-03-05T20:54:17.764Z,21.90
2023-03-05T20:56:45.066Z,22.10
2023-03-05T20:59:12.837Z,22.80
2023-03-05T21:01:40.528Z,23.40
2023-03-05T21:04:07.955Z,24.60
2023-03-05T21:06:38.171Z,24.90
2023-03-05T21:09:05.564Z,25.70
2023-03-05T21:11:35.652Z,26.10
2023-03-05T21:14:03.012Z,26.80
2023-03-05T21:16:30.287Z,27.60
2023-03-05T21:18:57.506Z,27.40
2023-03-05T21:21:25.094Z,28.00
2023-03-05T21:23:53.423Z,28.50
2023-03-05T21:26:20.754Z,28.80
2023-03-05T21:28:48.081Z,29.00
2023-03-05T21:31:19.740Z,29.00
2023-03-05T21:33:47.166Z,29.50
2023-03-05T21:36:19.034Z,30.30
2023-03-05T21:38:47.275Z,30.40
2023-03-05T21:41:14.514Z,31.50
2023-03-05T21:43:42.930Z,31.70
2023-03-05T21:46:10.960Z,33.20
2023-03-05T21:48:38.285Z,32.80
2023-03-05T21:51:08.740Z,33.70
2023-03-05T21:53:38.930Z,33.80
2023-03-05T21:56:19.255Z,35.00
2023-03-05T21:58:47.284Z,35.50
2023-03-05T22:01:14.966Z,35.80
2023-03-05T22:03:42.174Z,35.60
2023-03-05T22:06:13.090Z,36.10
2023-03-05T22:08:40.154Z,36.10
2023-03-05T22:11:11.165Z,36.60
2023-03-05T22:13:38.525Z,36.60
2023-03-05T22:16:07.100Z,37.00
2023-03-05T22:18:34.216Z,37.80
2023-03-05T22:21:01.426Z,38.10
2023-03-05T22:23:31.911Z,38.50
2023-03-05T22:25:59.396Z,39.20
2023-03-05T22:28:27.016Z,39.60
2023-03-05T22:30:54.663Z,40.00
2023-03-05T22:33:24.268Z,40.60
2023-03-05T22:35:51.730Z,40.00
2023-03-05T22:38:18.972Z,40.40
2023-03-05T22:40:46.806Z,40.30
2023-03-05T22:43:14.219Z,40.70
2023-03-05T22:45:41.598Z,40.80
2023-03-05T22:48:10.067Z,41.90
2023-03-05T22:50:41.291Z,41.20
2023-03-05T22:53:08.563Z,41.10
2023-03-05T22:55:41.293Z,42.70
2023-03-05T22:58:08.598Z,42.80
2023-03-05T23:00:35.743Z,43.80
2023-03-05T23:03:02.992Z,43.90
2023-03-05T23:05:30.326Z,43.60
2023-03-05T23:07:57.630Z,43.20
2023-03-05T23:10:27.348Z,43.70
2023-03-05T23:12:55.366Z,43.80
2023-03-05T23:15:24.547Z,43.60
2023-03-05T23:17:51.696Z,44.90
2023-03-05T23:20:21.117Z,44.10
2023-03-05T23:22:48.317Z,44.80
2023-03-05T23:25:15.825Z,44.50
2023-03-05T23:27:43.075Z,44.50
2023-03-05T23:30:22.219Z,44.70
2023-03-05T23:32:53.939Z,45.40
2023-03-05T23:35:23.633Z,44.90
2023-03-05T23:37:51.131Z,44.90
2023-03-05T23:40:22.766Z,45.60
2023-03-05T23:42:52.845Z,46.20
2023-03-05T23:45:20.338Z,45.90
2023-03-05T23:47:50.714Z,46.30
2023-03-05T23:50:19.747Z,46.00
2023-03-05T23:52:47.146Z,46.00
2023-03-05T23:55:19.310Z,46.40
2023-03-05T23:57:46.521Z,46.20
